Time;durP1;ratioP1;P1;durP2;ratioP2;P2;SDS_P1;SDS_P2;PMS_P1;PMS_P2;Temp;Humidity;BMP_temperature;BMP_pressure;BME280_temperature;BME280_humidity;BME280_pressure;Samples;Min_cycle;Max_cycle;Signal;HPM_P1;HPM_P2
2023/10/11 00:01:11;;;;;;;5.60;4.30;;;14.10;99.90;;;;;;5019843;28;20253;-80
2023/10/11 00:03:45;;;;;;;9.33;5.30;;;14.10;99.90;;;;;;5054587;28;20299;-80
2023/10/11 00:06:13;;;;;;;8.50;4.90;;;14.10;99.90;;;;;;5038011;28;20411;-80
2023/10/11 00:08:40;;;;;;;9.77;4.90;;;14.10;99.90;;;;;;5020353;28;20520;-79
2023/10/11 00:11:07;;;;;;;9.80;4.83;;;14.10;99.90;;;;;;5036174;28;20989;-79
2023/10/11 00:13:33;;;;;;;5.90;4.30;;;14.10;99.90;;;;;;5053117;28;20427;-79
2023/10/11 00:16:07;;;;;;;7.90;4.77;;;13.90;99.90;;;;;;5023818;28;20450;-79
2023/10/11 00:18:34;;;;;;;7.20;4.50;;;13.80;99.90;;;;;;5041919;28;20439;-79
2023/10/11 00:21:03;;;;;;;10.90;5.03;;;13.80;99.90;;;;;;5039746;28;20412;-79
2023/10/11 00:23:31;;;;;;;8.23;5.00;;;13.70;99.90;;;;;;5040090;28;20518;-79
2023/10/11 00:26:01;;;;;;;7.00;4.23;;;13.70;99.90;;;;;;5040634;28;20438;-79
2023/10/11 00:28:27;;;;;;;7.43;4.80;;;13.60;99.90;;;;;;5040286;28;20489;-79
2023/10/11 00:30:55;;;;;;;5.30;4.60;;;13.50;99.90;;;;;;5057988;28;20899;-79
2023/10/11 00:33:21;;;;;;;8.03;5.03;;;13.40;99.90;;;;;;5040652;28;20205;-79
2023/10/11 00:35:48;;;;;;;7.13;5.00;;;13.40;99.90;;;;;;5035764;28;20444;-79
2023/10/11 00:38:20;;;;;;;6.50;5.10;;;13.40;99.90;;;;;;5043802;28;20610;-79
2023/10/11 00:41:12;;;;;;;9.57;4.43;;;13.40;99.90;;;;;;5021280;28;20774;-79
2023/10/11 00:43:50;;;;;;;7.03;4.73;;;13.40;99.90;;;;;;5043574;28;20449;-79
2023/10/11 00:46:19;;;;;;;8.80;4.80;;;13.50;99.90;;;;;;5051604;28;20847;-80
2023/10/11 00:48:53;;;;;;;9.47;5.20;;;13.50;99.90;;;;;;5039265;28;20390;-79
2023/10/11 00:51:20;;;;;;;9.00;4.67;;;13.40;99.90;;;;;;5004645;28;20460;-79
2023/10/11 00:53:47;;;;;;;5.87;4.43;;;13.40;99.90;;;;;;5019734;28;20508;-79
2023/10/11 00:56:14;;;;;;;7.80;5.20;;;13.40;99.90;;;;;;5003654;28;20431;-79
2023/10/11 00:58:41;;;;;;;7.60;5.03;;;13.40;99.90;;;;;;5019980;28;20434;-80
2023/10/11 01:01:08;;;;;;;6.47;4.73;;;13.40;99.90;;;;;;5019275;28;20448;-79
2023/10/11 01:03:35;;;;;;;6.97;4.67;;;13.40;99.90;;;;;;5003333;28;20453;-79
2023/10/11 01:06:01;;;;;;;11.97;5.30;;;13.40;99.90;;;;;;5011290;28;20507;-79
2023/10/11 01:08:38;;;;;;;6.90;4.60;;;13.40;99.90;;;;;;5022533;28;20535;-79
2023/10/11 01:11:09;;;;;;;9.30;4.57;;;13.30;99.90;;;;;;5057242;28;20453;-79
2023/10/11 01:13:38;;;;;;;8.87;5.07;;;13.40;99.90;;;;;;5039242;28;20420;-79
2023/10/11 01:16:06;;;;;;;9.43;4.37;;;13.30;99.90;;;;;;5023007;28;20424;-79
2023/10/11 01:18:33;;;;;;;7.77;4.07;;;13.30;99.90;;;;;;5057680;28;20879;-79
2023/10/11 01:21:05;;;;;;;7.00;4.80;;;13.30;99.90;;;;;;5056903;28;20419;-79
2023/10/11 01:23:34;;;;;;;12.20;5.03;;;13.30;99.90;;;;;;5057003;28;20455;-79
2023/10/11 01:26:06;;;;;;;8.90;4.70;;;13.20;99.90;;;;;;5022430;28;20428;-79
2023/10/11 01:28:31;;;;;;;9.97;5.43;;;13.20;99.90;;;;;;5056635;28;20444;-79
2023/10/11 01:30:57;;;;;;;7.20;4.73;;;13.30;99.90;;;;;;5057072;28;20740;-79
2023/10/11 01:33:22;;;;;;;6.63;4.57;;;13.20;99.90;;;;;;5022688;28;20229;-79
2023/10/11 01:35:49;;;;;;;7.77;5.03;;;13.20;99.90;;;;;;5057097;28;20181;-79
2023/10/11 01:38:17;;;;;;;6.17;4.80;;;13.20;99.90;;;;;;5056132;28;20321;-79
2023/10/11 01:40:43;;;;;;;8.27;4.60;;;13.30;99.90;;;;;;5039286;28;20412;-79
2023/10/11 01:43:10;;;;;;;9.63;4.93;;;13.40;99.90;;;;;;5022165;28;20472;-79
2023/10/11 01:45:39;;;;;;;5.90;4.30;;;13.30;99.90;;;;;;5056500;28;20414;-79
2023/10/11 01:48:05;;;;;;;7.00;4.90;;;13.30;99.90;;;;;;5006242;28;20430;-79
2023/10/11 01:50:31;;;;;;;6.27;4.40;;;13.30;99.90;;;;;;5057047;28;20409;-79
2023/10/11 01:52:56;;;;;;;12.53;5.67;;;13.30;99.90;;;;;;5056482;28;20852;-79
2023/10/11 01:55:22;;;;;;;7.70;5.80;;;13.30;99.90;;;;;;5021901;28;20568;-79
2023/10/11 01:57:50;;;;;;;7.40;5.07;;;13.40;99.90;;;;;;5005526;28;20239;-79
2023/10/11 02:00:20;;;;;;;8.00;5.40;;;13.30;99.90;;;;;;5056315;28;20355;-79
2023/10/11 02:02:49;;;;;;;11.60;4.97;;;13.30;99.90;;;;;;5039164;28;20982;-79
2023/10/11 02:05:15;;;;;;;7.67;5.20;;;13.30;99.90;;;;;;5054996;28;20954;-79
2023/10/11 02:07:41;;;;;;;10.07;4.97;;;13.40;99.90;;;;;;5021153;28;20399;-80
2023/10/11 02:10:12;;;;;;;8.73;4.93;;;13.50;99.90;;;;;;5033288;28;20192;-79
2023/10/11 02:12:44;;;;;;;9.23;5.10;;;13.40;99.90;;;;;;5056373;28;20416;-79
2023/10/11 02:15:11;;;;;;;9.20;5.57;;;13.40;99.90;;;;;;5052196;28;20428;-79
2023/10/11 02:17:39;;;;;;;12.70;5.47;;;13.40;99.90;;;;;;5002438;28;20428;-79
2023/10/11 02:20:13;;;;;;;8.43;5.27;;;13.40;99.90;;;;;;5018493;28;20523;-79
2023/10/11 02:22:43;;;;;;;9.23;5.63;;;13.30;99.90;;;;;;5003301;28;20497;-79
2023/10/11 02:25:13;;;;;;;6.10;4.70;;;13.20;99.90;;;;;;5002086;28;20491;-79
2023/10/11 02:27:41;;;;;;;10.30;5.20;;;13.20;99.90;;;;;;5004792;28;20421;-79
2023/10/11 02:30:14;;;;;;;11.13;5.70;;;13.20;99.90;;;;;;5020323;28;20423;-79
2023/10/11 02:32:43;;;;;;;10.23;5.10;;;13.10;99.90;;;;;;5036253;28;20413;-79
2023/10/11 02:35:12;;;;;;;14.20;4.33;;;13.10;99.90;;;;;;5017577;28;20421;-79
2023/10/11 02:37:38;;;;;;;5.77;4.50;;;13.00;99.90;;;;;;5001991;28;20472;-79
2023/10/11 02:40:08;;;;;;;7.03;4.80;;;12.90;99.90;;;;;;5038565;28;20393;-79
2023/10/11 02:42:37;;;;;;;10.87;4.80;;;12.90;99.90;;;;;;5022828;28;20244;-79
2023/10/11 02:45:08;;;;;;;9.27;5.07;;;12.80;99.90;;;;;;5037386;28;20420;-79
2023/10/11 02:47:37;;;;;;;8.90;4.70;;;12.70;99.90;;;;;;5005696;28;20935;-80
2023/10/11 02:50:06;;;;;;;7.67;4.87;;;12.60;99.90;;;;;;5020984;28;20416;-79
2023/10/11 02:52:39;;;;;;;6.57;4.73;;;12.60;99.90;;;;;;5021602;28;20439;-79
2023/10/11 02:55:27;;;;;;;8.87;5.37;;;12.60;99.90;;;;;;5038205;28;20427;-79
2023/10/11 02:58:21;;;;;;;9.83;6.17;;;12.60;99.90;;;;;;5041635;28;20423;-79
2023/10/11 03:00:43;;;;;;;10.50;5.57;;;12.50;99.90;;;;;;5057750;28;20447;-79
2023/10/11 03:03:15;;;;;;;7.30;4.53;;;12.50;99.90;;;;;;5042817;28;20470;-79
2023/10/11 03:05:41;;;;;;;7.53;4.60;;;12.40;99.90;;;;;;5056648;28;20887;-79
2023/10/11 03:08:16;;;;;;;10.40;5.60;;;12.40;99.90;;;;;;5037604;28;20416;-79
2023/10/11 03:10:59;;;;;;;10.73;6.57;;;12.30;99.90;;;;;;5037977;28;20427;-79
2023/10/11 03:13:29;;;;;;;8.50;4.70;;;12.40;99.90;;;;;;5037599;28;20397;-79
2023/10/11 03:15:55;;;;;;;9.80;6.27;;;12.30;99.90;;;;;;5037554;28;20495;-79
2023/10/11 03:18:25;;;;;;;9.43;5.50;;;12.30;99.90;;;;;;5054822;28;20408;-79
2023/10/11 03:21:06;;;;;;;12.17;5.47;;;12.20;99.90;;;;;;5037163;28;20423;-79
2023/10/11 03:23:35;;;;;;;9.70;5.43;;;12.10;99.90;;;;;;5055081;28;20474;-79
2023/10/11 03:26:08;;;;;;;7.97;5.03;;;12.10;99.90;;;;;;5037837;28;20408;-79
2023/10/11 03:28:33;;;;;;;9.67;5.90;;;12.10;99.90;;;;;;5055137;28;20482;-79
2023/10/11 03:30:59;;;;;;;7.00;5.50;;;12.00;99.90;;;;;;5020452;28;20412;-79
2023/10/11 03:33:26;;;;;;;9.57;5.90;;;12.00;99.90;;;;;;5037172;28;20703;-79
2023/10/11 03:35:51;;;;;;;10.50;5.07;;;11.90;99.90;;;;;;5017068;28;20189;-79
2023/10/11 03:38:17;;;;;;;8.93;5.37;;;11.90;99.90;;;;;;5029931;28;20868;-79
2023/10/11 03:41:07;;;;;;;8.20;4.97;;;11.90;99.90;;;;;;5020365;28;20185;-80
2023/10/11 03:43:33;;;;;;;14.37;5.63;;;11.90;99.90;;;;;;5036555;28;20468;-79
2023/10/11 03:46:01;;;;;;;9.67;6.00;;;11.80;99.90;;;;;;5037320;28;20892;-80
2023/10/11 03:48:28;;;;;;;9.20;4.83;;;11.80;99.90;;;;;;5037566;28;20181;-79
2023/10/11 03:50:55;;;;;;;7.10;4.73;;;11.80;99.90;;;;;;5058640;28;20871;-78
2023/10/11 03:53:20;;;;;;;12.20;5.60;;;11.80;99.90;;;;;;5041165;28;20454;-79
2023/10/11 03:55:47;;;;;;;9.83;5.50;;;11.70;99.90;;;;;;5041087;28;20408;-79
2023/10/11 04:01:06;;;;;;;7.03;5.43;;;11.70;99.90;;;;;;5042602;28;20868;-79
2023/10/11 04:03:35;;;;;;;8.13;5.00;;;11.60;99.90;;;;;;5025697;28;20482;-79
2023/10/11 04:06:00;;;;;;;10.73;5.87;;;11.60;99.90;;;;;;5031751;28;20451;-79
2023/10/11 04:08:26;;;;;;;7.37;4.83;;;11.50;99.90;;;;;;5008755;28;20440;-79
2023/10/11 04:10:53;;;;;;;9.00;5.40;;;11.60;99.90;;;;;;5038496;28;20178;-79
2023/10/11 04:13:25;;;;;;;8.30;5.80;;;11.60;99.90;;;;;;5038175;28;20417;-79
2023/10/11 04:15:52;;;;;;;9.57;5.47;;;11.60;99.90;;;;;;5020826;28;20500;-79
2023/10/11 04:18:32;;;;;;;8.63;5.70;;;11.60;99.90;;;;;;5038954;28;20412;-79
2023/10/11 04:21:13;;;;;;;14.40;6.97;;;11.60;99.90;;;;;;5021147;28;20424;-79
2023/10/11 04:23:41;;;;;;;10.70;6.07;;;11.60;99.90;;;;;;5020430;28;20967;-79
2023/10/11 04:26:08;;;;;;;7.83;5.50;;;11.50;99.90;;;;;;5038541;28;20413;-79
2023/10/11 04:28:34;;;;;;;11.27;6.00;;;11.50;99.90;;;;;;5020987;28;20420;-79
2023/10/11 04:34:00;;;;;;;9.33;5.53;;;11.50;99.90;;;;;;4938846;29;20488;-79
2023/10/11 04:36:28;;;;;;;11.30;6.07;;;11.40;99.90;;;;;;5007900;28;20444;-78
2023/10/11 04:39:02;;;;;;;11.10;6.77;;;11.40;99.90;;;;;;5020921;28;20222;-79
2023/10/11 04:41:37;;;;;;;11.07;6.03;;;11.40;99.90;;;;;;5036982;28;20397;-79
2023/10/11 04:44:13;;;;;;;9.90;5.70;;;11.40;99.90;;;;;;5019966;28;20472;-79
2023/10/11 04:46:44;;;;;;;8.57;6.50;;;11.40;99.90;;;;;;5037957;28;20413;-79
2023/10/11 04:49:18;;;;;;;7.53;6.00;;;11.40;99.90;;;;;;5020537;28;20420;-78
2023/10/11 04:51:47;;;;;;;9.57;6.07;;;11.30;99.90;;;;;;5037342;28;20425;-79
2023/10/11 04:54:14;;;;;;;10.80;5.83;;;11.30;99.90;;;;;;5036115;28;20421;-79
2023/10/11 04:59:06;;;;;;;12.90;7.27;;;11.40;99.90;;;;;;5037283;28;20421;-79
2023/10/11 05:04:15;;;;;;;9.53;5.73;;;11.40;99.90;;;;;;5036544;28;20220;-79
2023/10/11 05:06:44;;;;;;;8.20;5.97;;;11.40;99.90;;;;;;5037528;28;20440;-79
2023/10/11 05:09:21;;;;;;;11.53;6.40;;;11.40;99.90;;;;;;5026061;28;20891;-78
2023/10/11 05:11:53;;;;;;;11.87;6.30;;;11.40;99.90;;;;;;5020027;28;21004;-79
2023/10/11 05:15:19;;;;;;;13.60;6.00;;;11.40;99.90;;;;;;5020731;28;20842;-78
2023/10/11 05:22:35;;;;;;;10.70;5.60;;;11.30;99.90;;;;;;5037565;28;20469;-79
2023/10/11 05:30:44;;;;;;;9.73;6.70;;;11.20;99.90;;;;;;5037489;28;20417;-78
2023/10/11 05:52:14;;;;;;;13.70;5.50;;;11.10;99.90;;;;;;5037030;28;20396;-79
2023/10/11 05:54:40;;;;;;;8.67;5.53;;;11.20;99.90;;;;;;5003189;28;20928;-78
2023/10/11 05:57:06;;;;;;;9.67;5.70;;;11.30;99.90;;;;;;5019247;28;20431;-80
2023/10/11 05:59:37;;;;;;;9.83;5.57;;;11.20;99.90;;;;;;5018986;28;20425;-78
2023/10/11 06:02:07;;;;;;;10.43;6.23;;;11.20;99.90;;;;;;5019540;28;20405;-78
2023/10/11 06:04:39;;;;;;;9.67;5.77;;;11.20;99.90;;;;;;5036985;28;20467;-78
2023/10/11 06:07:05;;;;;;;11.60;6.77;;;11.20;99.90;;;;;;5038853;28;20475;-78
2023/10/11 06:09:38;;;;;;;8.60;6.10;;;11.30;99.90;;;;;;5002139;28;20512;-78
2023/10/11 06:12:09;;;;;;;11.37;6.77;;;11.30;99.90;;;;;;5036325;28;20492;-78
2023/10/11 06:14:36;;;;;;;14.83;5.90;;;11.30;99.90;;;;;;5019683;28;20421;-78
2023/10/11 06:17:06;;;;;;;12.20;5.33;;;11.40;99.90;;;;;;5003090;28;20786;-78
2023/10/11 06:19:32;;;;;;;10.87;5.90;;;11.40;99.90;;;;;;5039600;28;20444;-78
2023/10/11 06:22:09;;;;;;;10.50;6.00;;;11.50;99.90;;;;;;5019334;28;20405;-79
2023/10/11 06:24:36;;;;;;;11.63;5.10;;;11.50;99.90;;;;;;5036190;28;20444;-79
2023/10/11 06:29:45;;;;;;;13.10;5.67;;;11.60;99.90;;;;;;5036734;28;20455;-79
2023/10/11 06:32:11;;;;;;;12.23;6.40;;;11.90;99.90;;;;;;5036351;28;20421;-78
2023/10/11 06:34:40;;;;;;;15.70;6.20;;;11.90;99.90;;;;;;5035958;28;20407;-79
2023/10/11 06:37:06;;;;;;;9.77;5.40;;;12.00;99.90;;;;;;5054840;28;20899;-79
2023/10/11 06:42:24;;;;;;;8.20;5.77;;;12.30;99.90;;;;;;5055763;28;20424;-79
2023/10/11 06:45:01;;;;;;;8.90;5.30;;;12.40;99.90;;;;;;5040926;28;20873;-79
2023/10/11 06:47:35;;;;;;;13.13;6.07;;;12.50;99.90;;;;;;5038078;28;20412;-78
2023/10/11 06:50:11;;;;;;;9.10;5.60;;;12.70;99.90;;;;;;5056013;28;20415;-79
2023/10/11 06:52:43;;;;;;;7.40;5.40;;;12.70;99.90;;;;;;5040105;28;20416;-79
2023/10/11 06:57:50;;;;;;;9.97;5.30;;;12.80;99.90;;;;;;5056152;28;20816;-79
2023/10/11 07:02:55;;;;;;;8.33;4.63;;;12.90;99.90;;;;;;5038154;28;20566;-78
2023/10/11 07:05:25;;;;;;;14.20;5.80;;;13.00;99.90;;;;;;5037923;28;20427;-79
2023/10/11 07:07:52;;;;;;;7.60;4.70;;;13.00;99.90;;;;;;5054421;28;20443;-78
2023/10/11 07:10:28;;;;;;;12.40;5.97;;;13.10;99.90;;;;;;5037840;28;20511;-79
2023/10/11 07:13:16;;;;;;;10.73;6.00;;;13.30;99.90;;;;;;5037484;28;20450;-79
2023/10/11 07:15:44;;;;;;;13.03;4.73;;;13.30;99.90;;;;;;5037690;28;20431;-79
2023/10/11 07:18:27;;;;;;;16.33;6.60;;;13.40;99.90;;;;;;5055702;28;20465;-79
2023/10/11 07:21:09;;;;;;;8.40;6.10;;;13.50;99.90;;;;;;5039074;28;20424;-79
2023/10/11 07:23:55;;;;;;;10.37;6.07;;;13.70;99.90;;;;;;5036995;28;20471;-79
2023/10/11 07:29:02;;;;;;;9.57;5.50;;;13.90;99.90;;;;;;5040066;28;20447;-79
2023/10/11 07:31:33;;;;;;;9.63;5.10;;;14.10;99.90;;;;;;5047345;28;20488;-80
2023/10/11 07:34:05;;;;;;;8.93;5.47;;;14.10;99.90;;;;;;5053566;28;20906;-80
2023/10/11 07:36:31;;;;;;;10.90;5.67;;;14.30;99.90;;;;;;5055275;28;20769;-80
2023/10/11 07:38:56;;;;;;;8.13;5.47;;;14.30;99.90;;;;;;5003878;28;20483;-80
2023/10/11 07:41:27;;;;;;;9.60;5.63;;;14.50;99.90;;;;;;5020283;28;20425;-80
2023/10/11 07:43:55;;;;;;;8.23;4.33;;;14.70;99.90;;;;;;5055185;28;20205;-79
2023/10/11 07:46:21;;;;;;;15.30;4.90;;;15.00;99.90;;;;;;5021595;28;20416;-80
2023/10/11 07:48:47;;;;;;;10.47;4.90;;;15.20;99.90;;;;;;5020786;28;20447;-79
2023/10/11 07:51:13;;;;;;;10.87;5.03;;;15.30;99.90;;;;;;5036642;28;20424;-80
2023/10/11 07:53:41;;;;;;;8.40;4.97;;;15.60;99.90;;;;;;5055100;28;20405;-79
2023/10/11 07:56:07;;;;;;;8.70;4.33;;;15.70;99.90;;;;;;5054680;28;20404;-79
2023/10/11 07:58:33;;;;;;;7.17;4.60;;;16.00;99.90;;;;;;5020460;28;20439;-79
2023/10/11 08:01:15;;;;;;;8.37;4.30;;;16.10;99.90;;;;;;5004632;28;20420;-79
2023/10/11 08:03:44;;;;;;;11.10;4.33;;;16.30;99.90;;;;;;5039233;28;20213;-79
2023/10/11 08:06:25;;;;;;;10.93;4.40;;;16.40;99.90;;;;;;5020969;28;20876;-79
2023/10/11 08:09:00;;;;;;;6.13;4.07;;;16.60;99.90;;;;;;5054544;28;20974;-79
2023/10/11 08:11:36;;;;;;;7.37;4.00;;;16.80;99.90;;;;;;5054143;28;20419;-80
2023/10/11 08:14:06;;;;;;;9.93;3.93;;;17.10;99.90;;;;;;5037213;28;20424;-80
2023/10/11 08:16:33;;;;;;;8.17;3.70;;;17.40;99.90;;;;;;5053969;28;20419;-80
2023/10/11 08:18:59;;;;;;;6.70;3.63;;;17.50;99.90;;;;;;5020549;28;20408;-80
2023/10/11 08:21:25;;;;;;;12.43;4.00;;;17.70;99.90;;;;;;5036045;28;20557;-80
2023/10/11 08:23:50;;;;;;;7.87;3.73;;;17.90;99.90;;;;;;5036186;28;20558;-80
2023/10/11 08:26:20;;;;;;;6.30;3.43;;;18.00;99.90;;;;;;5054001;28;20181;-80
2023/10/11 08:28:50;;;;;;;7.43;4.47;;;18.30;99.90;;;;;;5053882;28;20539;-80
2023/10/11 08:34:01;;;;;;;7.60;4.87;;;18.70;99.90;;;;;;5053949;28;20420;-80
2023/10/11 08:36:29;;;;;;;9.23;3.90;;;18.90;99.90;;;;;;5035454;28;20410;-80
2023/10/11 08:38:56;;;;;;;13.03;4.20;;;19.30;99.90;;;;;;5023768;28;20583;-80
2023/10/11 08:41:22;;;;;;;8.63;4.00;;;19.40;99.90;;;;;;5016161;28;20406;-80
2023/10/11 08:43:49;;;;;;;7.27;3.90;;;19.50;99.90;;;;;;5039610;28;20434;-80
2023/10/11 08:46:18;;;;;;;6.97;2.97;;;19.60;99.90;;;;;;5057160;28;20727;-81
2023/10/11 08:48:49;;;;;;;8.83;3.40;;;19.70;99.90;;;;;;5039253;28;20406;-80
2023/10/11 08:51:22;;;;;;;7.00;3.80;;;19.80;99.90;;;;;;5039889;28;20486;-80
2023/10/11 08:53:54;;;;;;;7.37;3.77;;;20.00;99.90;;;;;;5040529;28;20793;-80
2023/10/11 08:56:23;;;;;;;7.83;3.57;;;20.30;99.90;;;;;;5039433;28;20896;-80
2023/10/11 08:58:51;;;;;;;12.60;4.03;;;20.50;99.90;;;;;;5039341;28;20408;-80
2023/10/11 09:01:17;;;;;;;8.97;5.17;;;21.00;99.90;;;;;;5022460;28;20395;-82
2023/10/11 09:03:43;;;;;;;9.13;3.97;;;21.30;99.90;;;;;;5036377;28;20476;-80
2023/10/11 09:06:22;;;;;;;7.50;3.20;;;21.50;99.90;;;;;;5018661;28;20814;-80
2023/10/11 09:08:49;;;;;;;7.13;3.30;;;21.80;99.90;;;;;;5018324;28;20188;-80
2023/10/11 09:11:28;;;;;;;10.10;4.50;;;22.00;99.90;;;;;;5012522;28;20970;-80
2023/10/11 09:14:22;;;;;;;6.80;4.27;;;22.20;99.90;;;;;;5056523;28;20448;-80
2023/10/11 09:16:48;;;;;;;8.80;3.87;;;22.60;99.90;;;;;;5037954;28;20780;-80
2023/10/11 09:19:19;;;;;;;6.70;3.30;;;23.00;99.90;;;;;;5021174;28;20399;-80
2023/10/11 09:22:04;;;;;;;7.77;3.87;;;23.00;99.90;;;;;;5022285;28;20420;-79
2023/10/11 09:24:41;;;;;;;8.90;3.40;;;23.30;99.90;;;;;;5038186;28;20404;-80
2023/10/11 09:29:44;;;;;;;7.37;3.77;;;23.90;99.90;;;;;;5038691;28;20507;-80
2023/10/11 09:32:09;;;;;;;6.23;3.80;;;23.90;99.90;;;;;;5055581;28;20514;-80
2023/10/11 09:34:41;;;;;;;10.93;3.83;;;23.80;99.90;;;;;;5037719;28;20890;-80
2023/10/11 09:37:11;;;;;;;8.97;3.20;;;24.20;99.90;;;;;;5037847;28;20432;-81
2023/10/11 09:39:38;;;;;;;7.47;3.70;;;24.10;99.90;;;;;;5037589;28;20423;-80
2023/10/11 09:42:04;;;;;;;4.73;3.60;;;24.30;99.90;;;;;;5037356;28;20431;-80
2023/10/11 09:44:40;;;;;;;11.60;3.70;;;24.60;99.90;;;;;;5055262;28;20417;-80
2023/10/11 09:47:10;;;;;;;13.23;4.03;;;24.70;99.90;;;;;;5062104;28;20410;-80
2023/10/11 09:49:43;;;;;;;14.80;3.80;;;24.50;99.90;;;;;;5052887;28;20450;-81
2023/10/11 09:52:17;;;;;;;9.20;3.70;;;25.00;99.90;;;;;;5058119;28;20440;-81
2023/10/11 09:54:43;;;;;;;12.63;3.73;;;25.10;99.90;;;;;;5036646;28;20512;-80
2023/10/11 09:57:25;;;;;;;14.87;3.60;;;25.40;99.90;;;;;;5020809;28;20416;-80
2023/10/11 10:00:11;;;;;;;15.03;4.57;;;25.00;99.90;;;;;;5054880;28;20412;-80
2023/10/11 10:02:46;;;;;;;10.03;4.10;;;25.30;99.90;;;;;;5054530;28;20495;-80
2023/10/11 10:05:13;;;;;;;7.57;3.70;;;25.40;99.90;;;;;;5054657;28;20807;-80
2023/10/11 10:10:06;;;;;;;10.73;4.37;;;24.90;99.90;;;;;;5054752;28;20511;-79
2023/10/11 10:12:40;;;;;;;8.53;3.20;;;25.00;99.90;;;;;;5019406;28;20205;-80
2023/10/11 10:15:14;;;;;;;10.13;4.20;;;25.00;99.90;;;;;;5036633;28;20427;-80
2023/10/11 10:18:03;;;;;;;9.20;3.33;;;25.10;99.90;;;;;;5036453;28;20432;-80
2023/10/11 10:20:34;;;;;;;6.93;3.60;;;25.30;99.90;;;;;;5036457;28;20424;-79
2023/10/11 10:23:15;;;;;;;6.97;3.70;;;25.20;99.90;;;;;;5036458;28;20521;-79
2023/10/11 10:25:48;;;;;;;7.70;2.97;;;24.90;99.90;;;;;;5036196;28;20427;-79
2023/10/11 10:28:45;;;;;;;5.63;3.47;;;24.90;99.90;;;;;;5054592;28;20832;-80
2023/10/11 10:31:19;;;;;;;10.50;4.23;;;24.70;99.90;;;;;;5054426;28;20412;-81
2023/10/11 10:33:51;;;;;;;7.27;3.20;;;24.90;99.90;;;;;;5036101;28;20439;-80
2023/10/11 10:36:29;;;;;;;7.57;3.73;;;25.30;99.90;;;;;;5036318;28;20423;-80
2023/10/11 10:39:00;;;;;;;5.43;3.00;;;25.20;99.90;;;;;;5053748;28;20467;-81
2023/10/11 10:41:31;;;;;;;10.03;4.17;;;25.30;99.90;;;;;;5036017;28;20424;-80
2023/10/11 10:44:10;;;;;;;12.23;3.67;;;25.20;99.90;;;;;;5036364;28;20475;-79
2023/10/11 10:46:50;;;;;;;6.40;3.20;;;25.20;99.90;;;;;;5036518;28;20427;-80
2023/10/11 10:49:23;;;;;;;10.73;3.90;;;25.00;99.90;;;;;;5054331;28;20400;-79
2023/10/11 10:51:48;;;;;;;12.77;3.70;;;25.10;99.90;;;;;;5035835;28;20455;-80
2023/10/11 10:54:17;;;;;;;8.70;3.47;;;25.30;99.90;;;;;;5019684;28;20428;-80
2023/10/11 10:56:47;;;;;;;6.90;3.30;;;25.40;99.90;;;;;;5053631;28;20546;-79
2023/10/11 10:59:15;;;;;;;11.77;4.20;;;25.40;99.90;;;;;;5018598;28;20451;-80
2023/10/11 11:01:44;;;;;;;7.80;3.67;;;25.50;99.90;;;;;;5035452;28;20420;-80
2023/10/11 11:04:14;;;;;;;6.90;3.40;;;25.70;99.90;;;;;;5053652;28;20463;-81
2023/10/11 11:06:46;;;;;;;5.50;3.37;;;25.70;99.90;;;;;;5043787;28;20781;-80
2023/10/11 11:09:15;;;;;;;9.40;3.77;;;25.50;99.90;;;;;;5015855;28;20420;-80
2023/10/11 11:11:44;;;;;;;6.90;3.33;;;25.60;99.90;;;;;;5033422;28;20985;-79
2023/10/11 11:14:14;;;;;;;7.07;3.37;;;25.60;99.90;;;;;;5034057;28;20400;-79
2023/10/11 11:16:41;;;;;;;9.23;3.90;;;25.60;99.90;;;;;;5033848;28;20915;-80
2023/10/11 11:19:18;;;;;;;5.63;3.53;;;25.40;99.90;;;;;;5018186;28;20421;-80
2023/10/11 11:21:44;;;;;;;6.20;4.13;;;25.50;99.90;;;;;;5035067;28;20463;-80
2023/10/11 11:24:27;;;;;;;6.03;4.43;;;25.80;99.90;;;;;;5034260;28;20464;-81
2023/10/11 11:26:54;;;;;;;8.67;3.70;;;25.90;99.90;;;;;;5016315;28;20831;-81
2023/10/11 11:29:33;;;;;;;7.97;3.73;;;26.20;99.90;;;;;;5016039;28;20507;-81
2023/10/11 11:32:14;;;;;;;11.23;3.63;;;26.20;99.90;;;;;;5036378;28;20943;-81
2023/10/11 11:35:00;;;;;;;8.43;4.50;;;26.20;99.90;;;;;;5016337;28;20474;-80
2023/10/11 11:37:29;;;;;;;8.10;4.30;;;25.90;99.90;;;;;;5015619;28;20507;-81
2023/10/11 11:40:17;;;;;;;13.00;4.00;;;25.80;99.90;;;;;;5052469;28;20424;-80
2023/10/11 11:42:47;;;;;;;9.13;4.30;;;25.70;99.90;;;;;;5052822;28;20838;-81
2023/10/11 11:45:14;;;;;;;6.57;4.43;;;25.60;99.90;;;;;;5035058;28;20420;-81
2023/10/11 11:47:40;;;;;;;16.27;4.57;;;25.60;99.90;;;;;;5034918;28;20435;-81
2023/10/11 11:50:18;;;;;;;6.97;3.80;;;25.50;99.90;;;;;;5001910;28;20426;-81
2023/10/11 11:52:43;;;;;;;8.63;3.83;;;25.40;99.90;;;;;;5003248;28;20533;-81
2023/10/11 11:55:09;;;;;;;10.53;3.60;;;25.50;99.90;;;;;;5015720;28;20420;-81
2023/10/11 11:57:35;;;;;;;8.93;3.97;;;25.60;99.90;;;;;;5015455;28;20531;-82
2023/10/11 12:00:19;;;;;;;12.93;3.57;;;25.70;99.90;;;;;;5018952;28;20431;-81
2023/10/11 12:02:45;;;;;;;10.30;4.40;;;25.70;99.90;;;;;;5058626;28;20272;-81
2023/10/11 12:05:11;;;;;;;6.03;4.83;;;25.80;99.90;;;;;;5026994;28;20523;-81
2023/10/11 12:07:36;;;;;;;6.83;3.27;;;25.80;99.90;;;;;;5003235;28;20182;-82
2023/10/11 12:10:10;;;;;;;8.33;4.20;;;25.90;99.90;;;;;;5053601;28;20460;-81
2023/10/11 12:12:36;;;;;;;7.90;3.20;;;25.90;99.90;;;;;;5057698;28;20162;-81
2023/10/11 12:15:03;;;;;;;8.80;3.97;;;26.00;99.90;;;;;;5023156;28;20831;-81
2023/10/11 12:17:29;;;;;;;10.17;4.10;;;26.10;99.90;;;;;;5038705;28;20230;-82
2023/10/11 12:19:54;;;;;;;18.53;4.80;;;26.20;99.90;;;;;;5039746;28;20537;-81
2023/10/11 12:22:22;;;;;;;13.33;4.77;;;26.30;99.90;;;;;;5058052;28;20185;-81
2023/10/11 12:24:48;;;;;;;15.70;4.20;;;26.40;99.90;;;;;;5038501;28;20177;-81
2023/10/11 12:27:13;;;;;;;11.13;4.73;;;26.50;99.90;;;;;;5038892;28;20440;-80
2023/10/11 12:29:40;;;;;;;11.07;3.73;;;26.50;99.90;;;;;;5022239;28;20499;-81
2023/10/11 12:32:08;;;;;;;8.90;4.17;;;26.50;99.90;;;;;;5018994;28;20561;-81
2023/10/11 12:34:34;;;;;;;14.20;4.50;;;26.50;99.90;;;;;;5022386;28;20464;-81
2023/10/11 12:37:02;;;;;;;10.53;4.33;;;26.30;99.90;;;;;;5018463;28;20421;-81
2023/10/11 12:39:33;;;;;;;11.73;4.57;;;26.40;99.90;;;;;;5019147;28;20224;-80
2023/10/11 12:42:01;;;;;;;11.70;4.17;;;26.40;99.90;;;;;;5036629;28;20408;-81
2023/10/11 12:44:29;;;;;;;10.93;3.90;;;26.50;99.90;;;;;;5018692;28;20508;-81
2023/10/11 12:46:59;;;;;;;12.33;4.37;;;26.80;99.90;;;;;;5018879;28;20500;-81
2023/10/11 12:49:27;;;;;;;8.27;4.70;;;26.80;99.90;;;;;;5018721;28;20955;-81
2023/10/11 12:51:53;;;;;;;19.60;3.90;;;27.00;99.90;;;;;;5035844;28;20889;-81
2023/10/11 12:54:19;;;;;;;19.77;4.33;;;27.10;99.90;;;;;;5036453;28;20427;-81
2023/10/11 12:56:45;;;;;;;15.67;4.20;;;27.00;99.90;;;;;;5019518;28;20711;-81
2023/10/11 12:59:14;;;;;;;12.90;4.10;;;27.00;99.90;;;;;;5028583;28;20862;-81
2023/10/11 13:01:50;;;;;;;15.17;4.23;;;26.90;99.90;;;;;;5036227;28;20424;-81
2023/10/11 13:04:30;;;;;;;9.83;3.77;;;26.90;99.90;;;;;;5029758;28;20471;-81
2023/10/11 13:06:59;;;;;;;9.43;5.10;;;27.00;99.90;;;;;;5003564;28;20923;-81
2023/10/11 13:09:27;;;;;;;10.90;4.70;;;27.10;99.90;;;;;;5018315;28;21003;-80
2023/10/11 13:11:56;;;;;;;12.97;4.00;;;27.20;99.90;;;;;;5035691;28;20417;-81
2023/10/11 13:14:22;;;;;;;13.07;4.90;;;27.00;99.90;;;;;;5018327;28;20421;-81
2023/10/11 13:16:53;;;;;;;13.70;4.37;;;27.20;99.60;;;;;;5017641;28;20799;-81
2023/10/11 13:19:20;;;;;;;11.63;4.43;;;27.20;98.90;;;;;;5001960;28;20784;-80
2023/10/11 13:21:50;;;;;;;10.90;4.07;;;27.20;98.50;;;;;;5016692;28;20476;-81
2023/10/11 13:24:21;;;;;;;18.50;4.77;;;27.10;99.10;;;;;;5017873;28;20472;-81
2023/10/11 13:26:47;;;;;;;14.73;4.23;;;27.20;99.40;;;;;;5032802;28;20469;-81
2023/10/11 13:29:19;;;;;;;14.13;4.40;;;27.10;99.00;;;;;;5055218;28;20507;-81
2023/10/11 13:31:55;;;;;;;15.50;4.40;;;26.90;99.40;;;;;;5055570;28;20465;-80
2023/10/11 13:34:23;;;;;;;10.37;3.63;;;26.20;98.60;;;;;;5057054;28;20411;-81
2023/10/11 13:36:49;;;;;;;9.83;3.77;;;25.90;99.70;;;;;;5054841;28;20867;-81
2023/10/11 13:39:27;;;;;;;12.80;4.30;;;25.60;99.90;;;;;;5020821;28;20605;-81
2023/10/11 13:42:04;;;;;;;8.47;3.27;;;25.40;99.90;;;;;;5054813;28;20412;-80
2023/10/11 13:44:32;;;;;;;14.30;5.23;;;25.40;99.90;;;;;;5055361;28;20404;-81
2023/10/11 13:46:58;;;;;;;11.73;4.77;;;25.50;99.90;;;;;;5036284;28;20979;-82
2023/10/11 13:49:26;;;;;;;8.67;3.30;;;25.50;99.90;;;;;;5000942;28;20528;-81
2023/10/11 13:52:01;;;;;;;12.47;3.70;;;25.50;99.90;;;;;;5017221;28;20185;-81
2023/10/11 13:54:49;;;;;;;14.60;3.87;;;25.50;99.90;;;;;;5017722;28;20452;-80
2023/10/11 13:57:18;;;;;;;9.50;3.60;;;25.40;99.90;;;;;;5035105;28;20500;-80
2023/10/11 13:59:51;;;;;;;12.33;3.43;;;25.30;99.90;;;;;;5002430;28;20436;-81
2023/10/11 14:02:32;;;;;;;13.03;4.10;;;25.30;99.90;;;;;;5010977;28;20836;-81